sensor_id;sensor_type;location;lat;lon;timestamp;P1;durP1;ratioP1;P2;durP2;ratioP2
19971;SDS011;10147;16.402;102.848;2023-09-08T00:01:46;25.73;;;22.25;;
19971;SDS011;10147;16.402;102.848;2023-09-08T00:04:16;23.85;;;20.98;;
19971;SDS011;10147;16.402;102.848;2023-09-08T00:06:48;23.90;;;20.17;;
19971;SDS011;10147;16.402;102.848;2023-09-08T00:09:18;21.73;;;19.20;;
19971;SDS011;10147;16.402;102.848;2023-09-08T00:11:48;24.30;;;19.25;;
19971;SDS011;10147;16.402;102.848;2023-09-08T00:14:18;24.67;;;22.08;;
19971;SDS011;10147;16.402;102.848;2023-09-08T00:16:51;25.73;;;22.98;;
19971;SDS011;10147;16.402;102.848;2023-09-08T00:19:25;21.20;;;18.95;;
19971;SDS011;10147;16.402;102.848;2023-09-08T00:21:55;20.77;;;18.48;;
19971;SDS011;10147;16.402;102.848;2023-09-08T00:24:26;22.30;;;18.15;;
19971;SDS011;10147;16.402;102.848;2023-09-08T00:26:57;20.33;;;18.23;;
19971;SDS011;10147;16.402;102.848;2023-09-08T00:29:28;18.70;;;16.80;;
19971;SDS011;10147;16.402;102.848;2023-09-08T00:31:58;18.45;;;16.67;;
19971;SDS011;10147;16.402;102.848;2023-09-08T00:34:28;15.27;;;13.82;;
19971;SDS011;10147;16.402;102.848;2023-09-08T00:36:58;15.48;;;14.07;;
19971;SDS011;10147;16.402;102.848;2023-09-08T00:39:37;16.55;;;14.93;;
19971;SDS011;10147;16.402;102.848;2023-09-08T00:42:08;16.25;;;14.65;;
19971;SDS011;10147;16.402;102.848;2023-09-08T00:44:37;15.98;;;13.60;;
19971;SDS011;10147;16.402;102.848;2023-09-08T00:47:08;15.40;;;13.77;;
19971;SDS011;10147;16.402;102.848;2023-09-08T00:49:38;14.13;;;12.70;;
19971;SDS011;10147;16.402;102.848;2023-09-08T00:52:08;16.17;;;12.73;;
19971;SDS011;10147;16.402;102.848;2023-09-08T00:54:38;18.23;;;12.88;;
19971;SDS011;10147;16.402;102.848;2023-09-08T00:57:09;15.68;;;12.18;;
19971;SDS011;10147;16.402;102.848;2023-09-08T00:59:39;12.55;;;11.35;;
19971;SDS011;10147;16.402;102.848;2023-09-08T01:02:09;14.63;;;12.43;;
19971;SDS011;10147;16.402;102.848;2023-09-08T01:04:39;13.70;;;11.43;;
19971;SDS011;10147;16.402;102.848;2023-09-08T01:07:10;13.02;;;11.13;;
19971;SDS011;10147;16.402;102.848;2023-09-08T01:09:40;19.35;;;10.65;;
19971;SDS011;10147;16.402;102.848;2023-09-08T01:12:12;15.60;;;11.20;;
19971;SDS011;10147;16.402;102.848;2023-09-08T01:14:42;13.65;;;9.85;;
19971;SDS011;10147;16.402;102.848;2023-09-08T01:17:12;14.10;;;10.32;;
19971;SDS011;10147;16.402;102.848;2023-09-08T01:19:42;24.00;;;21.50;;
19971;SDS011;10147;16.402;102.848;2023-09-08T01:25:23;11.93;;;8.73;;
19971;SDS011;10147;16.402;102.848;2023-09-08T01:27:55;16.92;;;12.38;;
19971;SDS011;10147;16.402;102.848;2023-09-08T01:30:28;10.50;;;9.38;;
19971;SDS011;10147;16.402;102.848;2023-09-08T01:33:03;10.98;;;9.70;;
19971;SDS011;10147;16.402;102.848;2023-09-08T01:35:35;9.82;;;8.82;;
19971;SDS011;10147;16.402;102.848;2023-09-08T01:38:05;10.20;;;8.57;;
19971;SDS011;10147;16.402;102.848;2023-09-08T01:40:36;10.52;;;8.07;;
19971;SDS011;10147;16.402;102.848;2023-09-08T01:43:06;12.10;;;7.40;;
19971;SDS011;10147;16.402;102.848;2023-09-08T01:45:37;7.65;;;6.57;;
19971;SDS011;10147;16.402;102.848;2023-09-08T01:48:06;11.50;;;7.95;;
19971;SDS011;10147;16.402;102.848;2023-09-08T01:50:37;10.90;;;8.15;;
19971;SDS011;10147;16.402;102.848;2023-09-08T01:53:07;10.50;;;8.30;;
19971;SDS011;10147;16.402;102.848;2023-09-08T01:55:37;9.18;;;7.60;;
19971;SDS011;10147;16.402;102.848;2023-09-08T01:58:07;8.95;;;7.18;;
19971;SDS011;10147;16.402;102.848;2023-09-08T02:00:37;10.40;;;8.45;;
19971;SDS011;10147;16.402;102.848;2023-09-08T02:03:07;9.30;;;8.20;;
19971;SDS011;10147;16.402;102.848;2023-09-08T02:05:37;12.88;;;8.75;;
19971;SDS011;10147;16.402;102.848;2023-09-08T02:08:08;9.63;;;8.60;;
19971;SDS011;10147;16.402;102.848;2023-09-08T02:10:41;9.48;;;7.97;;
19971;SDS011;10147;16.402;102.848;2023-09-08T02:13:12;11.05;;;8.82;;
19971;SDS011;10147;16.402;102.848;2023-09-08T02:15:42;8.57;;;7.68;;
19971;SDS011;10147;16.402;102.848;2023-09-08T02:18:12;11.48;;;8.32;;
19971;SDS011;10147;16.402;102.848;2023-09-08T02:20:43;8.73;;;7.93;;
19971;SDS011;10147;16.402;102.848;2023-09-08T02:23:14;9.45;;;8.55;;
19971;SDS011;10147;16.402;102.848;2023-09-08T02:25:44;11.50;;;9.32;;
19971;SDS011;10147;16.402;102.848;2023-09-08T02:28:14;10.32;;;9.23;;
19971;SDS011;10147;16.402;102.848;2023-09-08T02:30:46;10.57;;;9.32;;
19971;SDS011;10147;16.402;102.848;2023-09-08T02:33:16;12.57;;;9.80;;
19971;SDS011;10147;16.402;102.848;2023-09-08T02:35:46;12.27;;;9.70;;
19971;SDS011;10147;16.402;102.848;2023-09-08T02:38:18;11.60;;;9.75;;
19971;SDS011;10147;16.402;102.848;2023-09-08T02:40:48;9.50;;;8.60;;
19971;SDS011;10147;16.402;102.848;2023-09-08T02:43:18;9.77;;;8.88;;
19971;SDS011;10147;16.402;102.848;2023-09-08T02:45:48;9.32;;;8.40;;
19971;SDS011;10147;16.402;102.848;2023-09-08T02:48:18;12.23;;;8.27;;
19971;SDS011;10147;16.402;102.848;2023-09-08T02:50:48;11.25;;;9.38;;
19971;SDS011;10147;16.402;102.848;2023-09-08T02:53:18;12.07;;;8.93;;
19971;SDS011;10147;16.402;102.848;2023-09-08T02:55:49;10.20;;;8.73;;
19971;SDS011;10147;16.402;102.848;2023-09-08T02:58:19;12.70;;;9.60;;
19971;SDS011;10147;16.402;102.848;2023-09-08T03:00:50;9.98;;;8.95;;
19971;SDS011;10147;16.402;102.848;2023-09-08T03:03:23;10.45;;;8.98;;
19971;SDS011;10147;16.402;102.848;2023-09-08T03:05:53;11.57;;;10.23;;
19971;SDS011;10147;16.402;102.848;2023-09-08T03:08:26;11.43;;;9.70;;
19971;SDS011;10147;16.402;102.848;2023-09-08T03:10:58;13.18;;;9.57;;
19971;SDS011;10147;16.402;102.848;2023-09-08T03:13:29;12.68;;;9.65;;
19971;SDS011;10147;16.402;102.848;2023-09-08T03:16:06;12.40;;;9.77;;
19971;SDS011;10147;16.402;102.848;2023-09-08T03:18:38;12.75;;;8.48;;
19971;SDS011;10147;16.402;102.848;2023-09-08T03:21:07;9.82;;;8.82;;
19971;SDS011;10147;16.402;102.848;2023-09-08T03:23:38;15.07;;;10.55;;
19971;SDS011;10147;16.402;102.848;2023-09-08T03:26:12;10.27;;;8.82;;
19971;SDS011;10147;16.402;102.848;2023-09-08T03:28:42;10.55;;;9.45;;
19971;SDS011;10147;16.402;102.848;2023-09-08T03:31:12;11.20;;;10.07;;
19971;SDS011;10147;16.402;102.848;2023-09-08T03:33:42;10.43;;;8.82;;
19971;SDS011;10147;16.402;102.848;2023-09-08T03:36:13;10.35;;;8.88;;
19971;SDS011;10147;16.402;102.848;2023-09-08T03:38:43;12.25;;;9.10;;
19971;SDS011;10147;16.402;102.848;2023-09-08T03:41:14;10.40;;;9.43;;
19971;SDS011;10147;16.402;102.848;2023-09-08T03:43:44;10.27;;;9.27;;
19971;SDS011;10147;16.402;102.848;2023-09-08T03:46:14;11.57;;;10.38;;
19971;SDS011;10147;16.402;102.848;2023-09-08T03:48:47;10.45;;;9.35;;
19971;SDS011;10147;16.402;102.848;2023-09-08T03:51:17;10.95;;;9.02;;
19971;SDS011;10147;16.402;102.848;2023-09-08T03:53:47;9.27;;;8.38;;
19971;SDS011;10147;16.402;102.848;2023-09-08T03:56:17;9.82;;;8.93;;
19971;SDS011;10147;16.402;102.848;2023-09-08T03:58:47;11.00;;;9.70;;
19971;SDS011;10147;16.402;102.848;2023-09-08T04:01:18;13.35;;;12.05;;
19971;SDS011;10147;16.402;102.848;2023-09-08T04:03:48;12.38;;;10.40;;
19971;SDS011;10147;16.402;102.848;2023-09-08T04:06:18;12.23;;;10.77;;
19971;SDS011;10147;16.402;102.848;2023-09-08T04:08:51;11.13;;;9.98;;
19971;SDS011;10147;16.402;102.848;2023-09-08T04:11:21;10.40;;;9.50;;
19971;SDS011;10147;16.402;102.848;2023-09-08T04:13:51;11.05;;;9.98;;
19971;SDS011;10147;16.402;102.848;2023-09-08T04:16:22;12.85;;;11.20;;
19971;SDS011;10147;16.402;102.848;2023-09-08T04:18:52;13.25;;;12.05;;
19971;SDS011;10147;16.402;102.848;2023-09-08T04:21:22;12.10;;;10.90;;
19971;SDS011;10147;16.402;102.848;2023-09-08T04:23:52;12.98;;;11.02;;
19971;SDS011;10147;16.402;102.848;2023-09-08T04:26:22;12.57;;;11.07;;
19971;SDS011;10147;16.402;102.848;2023-09-08T04:28:52;12.15;;;10.95;;
19971;SDS011;10147;16.402;102.848;2023-09-08T04:31:24;13.48;;;12.07;;
19971;SDS011;10147;16.402;102.848;2023-09-08T04:33:56;14.82;;;12.32;;
19971;SDS011;10147;16.402;102.848;2023-09-08T04:36:26;11.18;;;10.02;;
19971;SDS011;10147;16.402;102.848;2023-09-08T04:38:57;12.73;;;10.30;;
19971;SDS011;10147;16.402;102.848;2023-09-08T04:41:27;13.45;;;10.27;;
19971;SDS011;10147;16.402;102.848;2023-09-08T04:43:57;12.77;;;10.75;;
19971;SDS011;10147;16.402;102.848;2023-09-08T04:46:28;16.60;;;11.60;;
19971;SDS011;10147;16.402;102.848;2023-09-08T04:48:58;13.32;;;11.70;;
19971;SDS011;10147;16.402;102.848;2023-09-08T04:51:28;13.65;;;10.75;;
19971;SDS011;10147;16.402;102.848;2023-09-08T04:53:58;12.57;;;10.60;;
19971;SDS011;10147;16.402;102.848;2023-09-08T04:56:28;12.38;;;11.07;;
19971;SDS011;10147;16.402;102.848;2023-09-08T04:58:59;13.27;;;10.73;;
19971;SDS011;10147;16.402;102.848;2023-09-08T05:01:30;13.15;;;11.75;;
19971;SDS011;10147;16.402;102.848;2023-09-08T05:04:01;21.63;;;13.93;;
19971;SDS011;10147;16.402;102.848;2023-09-08T05:06:32;13.90;;;12.07;;
19971;SDS011;10147;16.402;102.848;2023-09-08T05:09:02;14.88;;;13.32;;
19971;SDS011;10147;16.402;102.848;2023-09-08T05:11:32;32.65;;;21.77;;
19971;SDS011;10147;16.402;102.848;2023-09-08T05:14:02;22.30;;;17.50;;
19971;SDS011;10147;16.402;102.848;2023-09-08T05:16:34;62.25;;;45.08;;
19971;SDS011;10147;16.402;102.848;2023-09-08T05:19:17;51.58;;;46.53;;
19971;SDS011;10147;16.402;102.848;2023-09-08T05:21:49;49.75;;;44.38;;
19971;SDS011;10147;16.402;102.848;2023-09-08T05:24:23;21.13;;;19.10;;
19971;SDS011;10147;16.402;102.848;2023-09-08T05:26:56;23.02;;;20.45;;
19971;SDS011;10147;16.402;102.848;2023-09-08T05:29:27;23.85;;;21.33;;
19971;SDS011;10147;16.402;102.848;2023-09-08T05:31:56;21.38;;;19.52;;
19971;SDS011;10147;16.402;102.848;2023-09-08T05:34:27;21.75;;;19.85;;
19971;SDS011;10147;16.402;102.848;2023-09-08T05:36:57;21.73;;;19.73;;
19971;SDS011;10147;16.402;102.848;2023-09-08T05:39:27;21.70;;;19.77;;
19971;SDS011;10147;16.402;102.848;2023-09-08T05:41:57;22.02;;;19.98;;
19971;SDS011;10147;16.402;102.848;2023-09-08T05:44:28;23.00;;;20.67;;
19971;SDS011;10147;16.402;102.848;2023-09-08T05:46:57;22.75;;;20.65;;
19971;SDS011;10147;16.402;102.848;2023-09-08T05:49:28;22.08;;;19.80;;
19971;SDS011;10147;16.402;102.848;2023-09-08T05:51:58;24.02;;;21.77;;
19971;SDS011;10147;16.402;102.848;2023-09-08T05:54:29;22.30;;;20.23;;
19971;SDS011;10147;16.402;102.848;2023-09-08T05:56:59;34.22;;;31.35;;
19971;SDS011;10147;16.402;102.848;2023-09-08T05:59:30;21.17;;;19.05;;
19971;SDS011;10147;16.402;102.848;2023-09-08T06:02:00;19.23;;;17.45;;
19971;SDS011;10147;16.402;102.848;2023-09-08T06:04:30;11.32;;;10.25;;
19971;SDS011;10147;16.402;102.848;2023-09-08T06:07:02;10.93;;;10.10;;
19971;SDS011;10147;16.402;102.848;2023-09-08T06:09:32;13.27;;;11.98;;
19971;SDS011;10147;16.402;102.848;2023-09-08T06:12:03;11.60;;;10.80;;
19971;SDS011;10147;16.402;102.848;2023-09-08T06:14:33;15.00;;;13.52;;
19971;SDS011;10147;16.402;102.848;2023-09-08T06:17:03;15.75;;;14.55;;
19971;SDS011;10147;16.402;102.848;2023-09-08T06:19:34;17.25;;;15.55;;
19971;SDS011;10147;16.402;102.848;2023-09-08T06:22:04;18.00;;;16.40;;
19971;SDS011;10147;16.402;102.848;2023-09-08T06:24:34;18.75;;;17.05;;
19971;SDS011;10147;16.402;102.848;2023-09-08T06:27:05;18.65;;;17.10;;
19971;SDS011;10147;16.402;102.848;2023-09-08T06:29:36;16.80;;;15.40;;
19971;SDS011;10147;16.402;102.848;2023-09-08T06:32:07;16.92;;;15.50;;
19971;SDS011;10147;16.402;102.848;2023-09-08T06:34:39;17.17;;;15.68;;
19971;SDS011;10147;16.402;102.848;2023-09-08T06:37:10;17.08;;;15.63;;
19971;SDS011;10147;16.402;102.848;2023-09-08T06:39:41;16.27;;;14.98;;
19971;SDS011;10147;16.402;102.848;2023-09-08T06:42:11;16.17;;;14.85;;
19971;SDS011;10147;16.402;102.848;2023-09-08T06:44:49;16.25;;;14.93;;
19971;SDS011;10147;16.402;102.848;2023-09-08T06:47:19;15.52;;;14.43;;
19971;SDS011;10147;16.402;102.848;2023-09-08T06:49:48;15.18;;;14.07;;
19971;SDS011;10147;16.402;102.848;2023-09-08T06:52:19;15.18;;;14.07;;
19971;SDS011;10147;16.402;102.848;2023-09-08T06:54:48;15.73;;;14.63;;
19971;SDS011;10147;16.402;102.848;2023-09-08T06:57:18;15.05;;;13.95;;
19971;SDS011;10147;16.402;102.848;2023-09-08T06:59:50;15.20;;;14.13;;
19971;SDS011;10147;16.402;102.848;2023-09-08T07:02:20;15.63;;;14.57;;
19971;SDS011;10147;16.402;102.848;2023-09-08T07:04:50;16.02;;;14.88;;
19971;SDS011;10147;16.402;102.848;2023-09-08T07:07:21;16.35;;;15.15;;
19971;SDS011;10147;16.402;102.848;2023-09-08T07:09:51;15.38;;;14.27;;
19971;SDS011;10147;16.402;102.848;2023-09-08T07:12:21;15.93;;;14.73;;
19971;SDS011;10147;16.402;102.848;2023-09-08T07:14:51;15.02;;;13.93;;
19971;SDS011;10147;16.402;102.848;2023-09-08T07:17:21;16.45;;;15.15;;
19971;SDS011;10147;16.402;102.848;2023-09-08T07:19:53;16.58;;;15.43;;
19971;SDS011;10147;16.402;102.848;2023-09-08T07:22:23;16.85;;;15.63;;
19971;SDS011;10147;16.402;102.848;2023-09-08T07:24:53;16.92;;;15.32;;
19971;SDS011;10147;16.402;102.848;2023-09-08T07:27:23;16.35;;;15.15;;
19971;SDS011;10147;16.402;102.848;2023-09-08T07:29:53;17.50;;;16.20;;
19971;SDS011;10147;16.402;102.848;2023-09-08T07:32:23;17.42;;;16.00;;
19971;SDS011;10147;16.402;102.848;2023-09-08T07:34:54;17.77;;;16.48;;
19971;SDS011;10147;16.402;102.848;2023-09-08T07:37:24;17.67;;;16.17;;
19971;SDS011;10147;16.402;102.848;2023-09-08T07:39:54;17.25;;;15.90;;
19971;SDS011;10147;16.402;102.848;2023-09-08T07:42:24;17.88;;;16.45;;
19971;SDS011;10147;16.402;102.848;2023-09-08T07:44:55;18.23;;;16.88;;
19971;SDS011;10147;16.402;102.848;2023-09-08T07:47:25;18.52;;;17.15;;
19971;SDS011;10147;16.402;102.848;2023-09-08T07:52:52;18.73;;;16.90;;
19971;SDS011;10147;16.402;102.848;2023-09-08T07:55:23;20.00;;;18.02;;
19971;SDS011;10147;16.402;102.848;2023-09-08T07:57:57;20.02;;;17.73;;
19971;SDS011;10147;16.402;102.848;2023-09-08T08:00:30;20.15;;;18.08;;
19971;SDS011;10147;16.402;102.848;2023-09-08T08:03:00;22.52;;;19.45;;
19971;SDS011;10147;16.402;102.848;2023-09-08T08:05:31;18.27;;;16.67;;
19971;SDS011;10147;16.402;102.848;2023-09-08T08:08:00;17.40;;;15.98;;
19971;SDS011;10147;16.402;102.848;2023-09-08T08:10:32;19.08;;;17.58;;
19971;SDS011;10147;16.402;102.848;2023-09-08T08:13:02;18.63;;;17.10;;
19971;SDS011;10147;16.402;102.848;2023-09-08T08:15:35;18.25;;;16.65;;
19971;SDS011;10147;16.402;102.848;2023-09-08T08:18:08;17.73;;;16.23;;
19971;SDS011;10147;16.402;102.848;2023-09-08T08:20:41;18.75;;;17.25;;
19971;SDS011;10147;16.402;102.848;2023-09-08T08:23:11;18.98;;;17.27;;
19971;SDS011;10147;16.402;102.848;2023-09-08T08:25:42;18.77;;;17.30;;
19971;SDS011;10147;16.402;102.848;2023-09-08T08:28:11;18.15;;;16.67;;
19971;SDS011;10147;16.402;102.848;2023-09-08T08:30:42;19.35;;;17.35;;
19971;SDS011;10147;16.402;102.848;2023-09-08T08:33:15;17.98;;;16.50;;
19971;SDS011;10147;16.402;102.848;2023-09-08T08:35:49;17.02;;;15.63;;
19971;SDS011;10147;16.402;102.848;2023-09-08T08:38:19;17.98;;;16.38;;
19971;SDS011;10147;16.402;102.848;2023-09-08T08:40:49;17.30;;;15.95;;
19971;SDS011;10147;16.402;102.848;2023-09-08T08:43:20;16.98;;;15.68;;
19971;SDS011;10147;16.402;102.848;2023-09-08T08:45:52;17.52;;;15.93;;
19971;SDS011;10147;16.402;102.848;2023-09-08T08:48:24;16.98;;;15.57;;
19971;SDS011;10147;16.402;102.848;2023-09-08T08:50:57;19.55;;;17.77;;
19971;SDS011;10147;16.402;102.848;2023-09-08T08:53:28;26.38;;;23.63;;
19971;SDS011;10147;16.402;102.848;2023-09-08T08:56:00;24.27;;;22.02;;
19971;SDS011;10147;16.402;102.848;2023-09-08T08:58:31;19.50;;;17.67;;
19971;SDS011;10147;16.402;102.848;2023-09-08T09:01:02;31.17;;;28.08;;
19971;SDS011;10147;16.402;102.848;2023-09-08T09:03:33;29.52;;;26.70;;
19971;SDS011;10147;16.402;102.848;2023-09-08T09:06:06;21.55;;;19.52;;
19971;SDS011;10147;16.402;102.848;2023-09-08T09:08:37;22.35;;;20.45;;
19971;SDS011;10147;16.402;102.848;2023-09-08T09:11:10;26.92;;;24.52;;
19971;SDS011;10147;16.402;102.848;2023-09-08T09:13:40;21.85;;;19.95;;
19971;SDS011;10147;16.402;102.848;2023-09-08T09:16:10;21.55;;;19.55;;
19971;SDS011;10147;16.402;102.848;2023-09-08T09:27:13;25.48;;;22.95;;
19971;SDS011;10147;16.402;102.848;2023-09-08T09:29:44;23.13;;;20.80;;
19971;SDS011;10147;16.402;102.848;2023-09-08T09:32:16;20.33;;;18.63;;
19971;SDS011;10147;16.402;102.848;2023-09-08T09:34:52;20.73;;;18.92;;
19971;SDS011;10147;16.402;102.848;2023-09-08T09:37:26;35.30;;;32.00;;
19971;SDS011;10147;16.402;102.848;2023-09-08T09:40:00;26.95;;;24.40;;
19971;SDS011;10147;16.402;102.848;2023-09-08T09:42:30;19.00;;;17.48;;
19971;SDS011;10147;16.402;102.848;2023-09-08T09:45:01;19.55;;;17.73;;
19971;SDS011;10147;16.402;102.848;2023-09-08T09:47:33;27.98;;;25.80;;
19971;SDS011;10147;16.402;102.848;2023-09-08T09:50:03;30.08;;;27.80;;
19971;SDS011;10147;16.402;102.848;2023-09-08T09:52:33;30.05;;;27.58;;
19971;SDS011;10147;16.402;102.848;2023-09-08T09:55:08;29.55;;;27.13;;
19971;SDS011;10147;16.402;102.848;2023-09-08T09:57:39;27.88;;;25.67;;
19971;SDS011;10147;16.402;102.848;2023-09-08T10:00:09;26.65;;;24.52;;
19971;SDS011;10147;16.402;102.848;2023-09-08T10:02:41;22.77;;;20.63;;
19971;SDS011;10147;16.402;102.848;2023-09-08T10:05:11;91.13;;;81.75;;
19971;SDS011;10147;16.402;102.848;2023-09-08T10:07:43;25.80;;;23.20;;
19971;SDS011;10147;16.402;102.848;2023-09-08T10:10:16;23.40;;;21.15;;
19971;SDS011;10147;16.402;102.848;2023-09-08T10:12:49;34.95;;;31.63;;
19971;SDS011;10147;16.402;102.848;2023-09-08T10:15:23;28.02;;;25.13;;
19971;SDS011;10147;16.402;102.848;2023-09-08T10:17:54;24.70;;;22.27;;
19971;SDS011;10147;16.402;102.848;2023-09-08T10:20:27;35.45;;;32.10;;
19971;SDS011;10147;16.402;102.848;2023-09-08T10:26:05;37.78;;;34.28;;
19971;SDS011;10147;16.402;102.848;2023-09-08T10:28:38;27.55;;;24.92;;
19971;SDS011;10147;16.402;102.848;2023-09-08T10:31:08;29.98;;;27.10;;
19971;SDS011;10147;16.402;102.848;2023-09-08T10:33:42;36.10;;;32.58;;
19971;SDS011;10147;16.402;102.848;2023-09-08T10:36:13;20.52;;;18.83;;
19971;SDS011;10147;16.402;102.848;2023-09-08T10:38:44;38.63;;;34.92;;
19971;SDS011;10147;16.402;102.848;2023-09-08T10:44:02;17.42;;;15.98;;
19971;SDS011;10147;16.402;102.848;2023-09-08T10:46:36;27.00;;;24.52;;
19971;SDS011;10147;16.402;102.848;2023-09-08T10:49:07;31.27;;;28.25;;
19971;SDS011;10147;16.402;102.848;2023-09-08T10:51:38;34.67;;;31.23;;
19971;SDS011;10147;16.402;102.848;2023-09-08T10:54:08;23.27;;;21.08;;
19971;SDS011;10147;16.402;102.848;2023-09-08T10:56:47;29.65;;;27.13;;
19971;SDS011;10147;16.402;102.848;2023-09-08T10:59:29;27.85;;;25.40;;
19971;SDS011;10147;16.402;102.848;2023-09-08T11:02:04;44.00;;;39.78;;
19971;SDS011;10147;16.402;102.848;2023-09-08T11:04:35;34.50;;;31.17;;
19971;SDS011;10147;16.402;102.848;2023-09-08T11:07:06;42.40;;;38.20;;
19971;SDS011;10147;16.402;102.848;2023-09-08T11:09:36;18.17;;;16.35;;
19971;SDS011;10147;16.402;102.848;2023-09-08T11:12:06;29.45;;;26.58;;
19971;SDS011;10147;16.402;102.848;2023-09-08T11:14:37;39.67;;;35.67;;
19971;SDS011;10147;16.402;102.848;2023-09-08T11:17:07;36.97;;;33.58;;
19971;SDS011;10147;16.402;102.848;2023-09-08T11:22:28;21.15;;;19.33;;
19971;SDS011;10147;16.402;102.848;2023-09-08T11:24:58;17.75;;;16.15;;
19971;SDS011;10147;16.402;102.848;2023-09-08T11:27:30;17.83;;;16.08;;
19971;SDS011;10147;16.402;102.848;2023-09-08T11:30:00;18.80;;;17.10;;
19971;SDS011;10147;16.402;102.848;2023-09-08T11:32:33;22.30;;;20.33;;
19971;SDS011;10147;16.402;102.848;2023-09-08T11:35:08;18.60;;;17.17;;
19971;SDS011;10147;16.402;102.848;2023-09-08T11:37:39;43.08;;;39.22;;
19971;SDS011;10147;16.402;102.848;2023-09-08T11:40:14;35.67;;;32.30;;
19971;SDS011;10147;16.402;102.848;2023-09-08T11:42:44;17.95;;;16.42;;
19971;SDS011;10147;16.402;102.848;2023-09-08T11:45:17;19.85;;;18.23;;
19971;SDS011;10147;16.402;102.848;2023-09-08T11:47:50;18.73;;;17.13;;
19971;SDS011;10147;16.402;102.848;2023-09-08T11:50:23;18.50;;;17.00;;
19971;SDS011;10147;16.402;102.848;2023-09-08T11:52:53;18.45;;;16.85;;
19971;SDS011;10147;16.402;102.848;2023-09-08T11:55:23;18.30;;;16.70;;
19971;SDS011;10147;16.402;102.848;2023-09-08T11:57:54;18.77;;;17.17;;
19971;SDS011;10147;16.402;102.848;2023-09-08T12:00:31;18.92;;;17.30;;
19971;SDS011;10147;16.402;102.848;2023-09-08T12:03:11;19.38;;;17.58;;
19971;SDS011;10147;16.402;102.848;2023-09-08T12:05:45;18.27;;;16.67;;
19971;SDS011;10147;16.402;102.848;2023-09-08T12:08:20;19.10;;;17.50;;
19971;SDS011;10147;16.402;102.848;2023-09-08T12:10:53;17.98;;;16.48;;
19971;SDS011;10147;16.402;102.848;2023-09-08T12:13:24;20.00;;;18.30;;
19971;SDS011;10147;16.402;102.848;2023-09-08T12:15:54;20.67;;;18.50;;
19971;SDS011;10147;16.402;102.848;2023-09-08T12:18:36;19.63;;;17.83;;
19971;SDS011;10147;16.402;102.848;2023-09-08T12:21:07;21.40;;;19.33;;
19971;SDS011;10147;16.402;102.848;2023-09-08T12:23:47;22.00;;;19.75;;
19971;SDS011;10147;16.402;102.848;2023-09-08T12:26:19;21.33;;;19.27;;
19971;SDS011;10147;16.402;102.848;2023-09-08T12:28:51;20.63;;;18.65;;
19971;SDS011;10147;16.402;102.848;2023-09-08T12:31:21;21.65;;;19.77;;
19971;SDS011;10147;16.402;102.848;2023-09-08T12:33:52;21.98;;;20.05;;
19971;SDS011;10147;16.402;102.848;2023-09-08T12:36:23;20.95;;;19.05;;
19971;SDS011;10147;16.402;102.848;2023-09-08T12:38:53;21.92;;;18.20;;
19971;SDS011;10147;16.402;102.848;2023-09-08T12:41:24;21.02;;;19.13;;
19971;SDS011;10147;16.402;102.848;2023-09-08T12:43:54;85.97;;;77.07;;
19971;SDS011;10147;16.402;102.848;2023-09-08T12:46:25;27.80;;;24.95;;
19971;SDS011;10147;16.402;102.848;2023-09-08T12:48:56;27.15;;;24.33;;
19971;SDS011;10147;16.402;102.848;2023-09-08T12:51:25;33.00;;;24.95;;
19971;SDS011;10147;16.402;102.848;2023-09-08T12:53:55;38.47;;;24.23;;
19971;SDS011;10147;16.402;102.848;2023-09-08T12:56:28;44.80;;;27.15;;
19971;SDS011;10147;16.402;102.848;2023-09-08T12:58:58;52.30;;;26.02;;
19971;SDS011;10147;16.402;102.848;2023-09-08T13:01:29;42.50;;;24.30;;
19971;SDS011;10147;16.402;102.848;2023-09-08T13:03:59;40.03;;;33.70;;
19971;SDS011;10147;16.402;102.848;2023-09-08T13:06:33;45.40;;;23.83;;
19971;SDS011;10147;16.402;102.848;2023-09-08T13:09:04;28.23;;;22.02;;
19971;SDS011;10147;16.402;102.848;2023-09-08T13:11:34;32.72;;;23.17;;
19971;SDS011;10147;16.402;102.848;2023-09-08T13:14:04;32.63;;;24.48;;
19971;SDS011;10147;16.402;102.848;2023-09-08T13:16:34;30.17;;;26.33;;
19971;SDS011;10147;16.402;102.848;2023-09-08T13:19:04;29.33;;;22.35;;
19971;SDS011;10147;16.402;102.848;2023-09-08T13:21:34;40.08;;;24.23;;
19971;SDS011;10147;16.402;102.848;2023-09-08T13:24:05;33.72;;;20.65;;
19971;SDS011;10147;16.402;102.848;2023-09-08T13:26:36;24.83;;;21.17;;
19971;SDS011;10147;16.402;102.848;2023-09-08T13:29:09;20.05;;;17.92;;
19971;SDS011;10147;16.402;102.848;2023-09-08T13:31:39;21.55;;;19.17;;
19971;SDS011;10147;16.402;102.848;2023-09-08T13:34:09;23.92;;;18.00;;
19971;SDS011;10147;16.402;102.848;2023-09-08T13:36:39;20.75;;;18.70;;
19971;SDS011;10147;16.402;102.848;2023-09-08T13:39:09;24.35;;;20.20;;
19971;SDS011;10147;16.402;102.848;2023-09-08T13:41:49;23.02;;;20.50;;
19971;SDS011;10147;16.402;102.848;2023-09-08T13:44:24;27.17;;;22.55;;
19971;SDS011;10147;16.402;102.848;2023-09-08T13:46:54;27.10;;;22.55;;
19971;SDS011;10147;16.402;102.848;2023-09-08T13:49:25;64.20;;;57.70;;
19971;SDS011;10147;16.402;102.848;2023-09-08T13:51:56;66.68;;;60.28;;
19971;SDS011;10147;16.402;102.848;2023-09-08T13:54:31;49.15;;;44.65;;
19971;SDS011;10147;16.402;102.848;2023-09-08T13:57:06;48.05;;;43.40;;
19971;SDS011;10147;16.402;102.848;2023-09-08T13:59:40;49.13;;;44.70;;
19971;SDS011;10147;16.402;102.848;2023-09-08T14:02:15;32.17;;;29.02;;
19971;SDS011;10147;16.402;102.848;2023-09-08T14:04:48;47.40;;;43.28;;
19971;SDS011;10147;16.402;102.848;2023-09-08T14:07:23;21.35;;;19.27;;
19971;SDS011;10147;16.402;102.848;2023-09-08T14:10:03;27.05;;;24.95;;
19971;SDS011;10147;16.402;102.848;2023-09-08T14:12:39;22.20;;;20.23;;
19971;SDS011;10147;16.402;102.848;2023-09-08T14:15:09;29.75;;;26.55;;
19971;SDS011;10147;16.402;102.848;2023-09-08T14:17:44;27.45;;;24.85;;
19971;SDS011;10147;16.402;102.848;2023-09-08T14:20:14;28.45;;;25.60;;
19971;SDS011;10147;16.402;102.848;2023-09-08T14:22:45;21.35;;;19.42;;
19971;SDS011;10147;16.402;102.848;2023-09-08T14:25:15;23.77;;;21.67;;
19971;SDS011;10147;16.402;102.848;2023-09-08T14:27:45;21.95;;;20.13;;
19971;SDS011;10147;16.402;102.848;2023-09-08T14:30:15;23.95;;;21.58;;
19971;SDS011;10147;16.402;102.848;2023-09-08T14:32:45;22.40;;;20.40;;
19971;SDS011;10147;16.402;102.848;2023-09-08T14:35:15;23.20;;;20.75;;
19971;SDS011;10147;16.402;102.848;2023-09-08T14:37:46;22.33;;;20.35;;
19971;SDS011;10147;16.402;102.848;2023-09-08T14:40:17;21.48;;;19.67;;
19971;SDS011;10147;16.402;102.848;2023-09-08T14:42:47;23.20;;;21.05;;
19971;SDS011;10147;16.402;102.848;2023-09-08T14:45:20;21.92;;;20.00;;